createdAt,value
2022-11-21T00:00:32.959Z,8.85
2022-11-21T00:02:59.852Z,12.13
2022-11-21T00:05:26.406Z,12.18
2022-11-21T00:07:54.422Z,15.05
2022-11-21T00:10:21.145Z,17.08
2022-11-21T00:12:47.934Z,9.75
2022-11-21T00:15:14.451Z,8.98
2022-11-21T00:17:40.955Z,16.02
2022-11-21T00:20:08.286Z,10.57
2022-11-21T00:22:34.797Z,12.38
2022-11-21T00:25:02.662Z,15.02
2022-11-21T00:27:29.180Z,10.77
2022-11-21T00:29:55.683Z,13.35
2022-11-21T00:32:22.185Z,19.33
2022-11-21T00:34:48.694Z,9.75
2022-11-21T00:37:15.231Z,13.20
2022-11-21T00:39:41.787Z,9.10
2022-11-21T00:42:09.642Z,14.13
2022-11-21T00:44:36.180Z,15.50
2022-11-21T00:47:02.689Z,16.48
2022-11-21T00:49:29.194Z,13.20
2022-11-21T00:51:55.764Z,12.15
2022-11-21T00:54:22.397Z,9.85
2022-11-21T00:56:48.970Z,10.32
2022-11-21T00:59:17.001Z,16.17
2022-11-21T01:01:43.528Z,14.50
2022-11-21T01:04:10.040Z,11.73
2022-11-21T01:06:37.674Z,14.40
2022-11-21T01:09:04.527Z,7.40
2022-11-21T01:11:31.347Z,11.80
2022-11-21T01:13:58.655Z,14.98
2022-11-21T01:16:28.507Z,15.98
2022-11-21T01:18:56.025Z,13.18
2022-11-21T01:21:25.119Z,9.32
2022-11-21T01:23:52.184Z,13.45
2022-11-21T01:26:20.336Z,16.10
2022-11-21T01:28:47.854Z,11.05
2022-11-21T01:31:16.033Z,11.80
2022-11-21T01:33:44.554Z,11.55
2022-11-21T01:36:13.589Z,17.17
2022-11-21T01:38:42.216Z,12.70
2022-11-21T01:41:09.988Z,11.65
2022-11-21T01:43:36.924Z,15.10
2022-11-21T01:46:09.008Z,13.68
2022-11-21T01:48:39.393Z,15.52
2022-11-21T01:51:11.839Z,15.05
2022-11-21T01:53:40.220Z,13.07
2022-11-21T01:56:08.137Z,10.77
2022-11-21T01:58:35.869Z,9.07
2022-11-21T02:01:03.204Z,11.60
2022-11-21T02:03:33.837Z,15.85
2022-11-21T02:06:00.545Z,12.77
2022-11-21T02:08:29.563Z,12.20
2022-11-21T02:11:08.501Z,15.63
2022-11-21T02:13:35.096Z,12.25
2022-11-21T02:16:02.385Z,14.23
2022-11-21T02:18:28.967Z,8.60
2022-11-21T02:21:05.771Z,12.32
2022-11-21T02:23:39.700Z,10.77
2022-11-21T02:26:07.881Z,10.10
2022-11-21T02:28:34.471Z,12.48
2022-11-21T02:31:01.034Z,9.70
2022-11-21T02:33:27.554Z,9.90
2022-11-21T02:35:58.322Z,10.25
2022-11-21T02:38:30.398Z,13.35
2022-11-21T02:41:07.927Z,11.50
2022-11-21T02:43:41.969Z,11.50
2022-11-21T02:46:08.477Z,18.40
2022-11-21T02:48:36.390Z,14.15
2022-11-21T02:51:03.040Z,8.68
2022-11-21T02:53:29.537Z,14.00
2022-11-21T02:55:56.100Z,9.25
2022-11-21T02:58:22.897Z,12.70
2022-11-21T03:00:50.870Z,12.32
2022-11-21T03:03:17.405Z,11.90
2022-11-21T03:05:44.129Z,10.73
2022-11-21T03:08:10.617Z,11.45
2022-11-21T03:10:37.539Z,12.63
2022-11-21T03:13:04.092Z,8.98
2022-11-21T03:15:32.874Z,9.60
2022-11-21T03:18:02.006Z,9.63
2022-11-21T03:20:28.921Z,6.15
2022-11-21T03:22:55.500Z,10.93
2022-11-21T03:25:22.056Z,13.35
2022-11-21T03:27:51.366Z,12.73
2022-11-21T03:30:18.117Z,9.43
2022-11-21T03:32:44.607Z,8.82
2022-11-21T03:35:12.597Z,12.90
2022-11-21T03:37:39.078Z,11.02
2022-11-21T03:40:07.167Z,14.57
2022-11-21T03:42:33.672Z,13.40
2022-11-21T03:45:00.215Z,9.68
2022-11-21T03:47:26.760Z,13.07
2022-11-21T03:49:53.348Z,8.25
2022-11-21T03:52:21.299Z,8.68
2022-11-21T03:54:47.891Z,12.65
2022-11-21T03:57:14.525Z,7.10
2022-11-21T03:59:41.174Z,10.88
2022-11-21T04:02:07.675Z,9.52
2022-11-21T04:04:34.296Z,9.90
2022-11-21T04:07:00.843Z,7.57
2022-11-21T04:09:28.816Z,9.70
2022-11-21T04:11:55.340Z,7.97
2022-11-21T04:14:21.915Z,12.13
2022-11-21T04:16:48.407Z,7.35
2022-11-21T04:19:14.990Z,7.10
2022-11-21T04:21:41.494Z,11.23
2022-11-21T04:24:08.526Z,10.32
2022-11-21T04:26:36.393Z,11.02
2022-11-21T04:29:02.966Z,9.65
2022-11-21T04:31:29.460Z,7.75
2022-11-21T04:33:55.994Z,8.45
2022-11-21T04:36:22.494Z,10.15
2022-11-21T04:38:49.083Z,8.13
2022-11-21T04:41:15.730Z,10.45
2022-11-21T04:43:43.657Z,8.00
2022-11-21T04:46:10.207Z,5.35
2022-11-21T04:48:36.847Z,9.50
2022-11-21T04:51:03.527Z,8.35
2022-11-21T04:53:30.194Z,11.20
2022-11-21T04:55:56.731Z,9.85
2022-11-21T04:58:23.327Z,9.32
2022-11-21T05:00:51.249Z,7.63
2022-11-21T05:03:18.733Z,9.07
2022-11-21T05:05:45.356Z,8.35
2022-11-21T05:08:11.971Z,11.57
2022-11-21T05:10:38.595Z,10.80
2022-11-21T05:13:05.123Z,7.88
2022-11-21T05:15:31.826Z,11.48
2022-11-21T05:18:00.464Z,10.57
2022-11-21T05:20:26.946Z,8.20
2022-11-21T05:22:53.525Z,9.02
2022-11-21T05:25:20.018Z,10.05
2022-11-21T05:27:46.596Z,6.18
2022-11-21T05:30:13.478Z,6.60
2022-11-21T05:32:40.049Z,7.75
2022-11-21T05:35:08.665Z,8.10
2022-11-21T05:37:35.272Z,8.15
2022-11-21T05:40:01.846Z,11.68
2022-11-21T05:42:28.501Z,8.88
2022-11-21T05:44:55.192Z,8.35
2022-11-21T05:47:21.769Z,10.43
2022-11-21T05:49:48.274Z,6.05
2022-11-21T05:52:16.228Z,7.30
2022-11-21T05:54:46.077Z,9.45
2022-11-21T05:57:12.893Z,8.48
2022-11-21T05:59:39.599Z,9.30
2022-11-21T06:02:06.168Z,15.00
2022-11-21T06:04:32.677Z,11.18
2022-11-21T06:06:59.358Z,10.45
2022-11-21T06:09:27.290Z,9.82
2022-11-21T06:11:53.833Z,10.85
2022-11-21T06:14:20.381Z,14.23
2022-11-21T06:16:46.941Z,9.90
2022-11-21T06:19:13.417Z,8.23
2022-11-21T06:21:39.969Z,12.27
2022-11-21T06:24:07.673Z,6.70
2022-11-21T06:26:35.622Z,8.98
2022-11-21T06:29:02.106Z,10.95
2022-11-21T06:31:28.653Z,9.52
2022-11-21T06:33:56.533Z,5.30
2022-11-21T06:36:23.560Z,13.13
2022-11-21T06:38:50.326Z,13.77
2022-11-21T06:41:18.751Z,10.65
2022-11-21T06:43:46.840Z,7.80
2022-11-21T06:46:14.555Z,11.57
2022-11-21T06:48:42.233Z,9.88
2022-11-21T06:51:13.304Z,10.07
2022-11-21T06:53:40.210Z,10.10
2022-11-21T06:56:06.907Z,9.98
2022-11-21T06:58:33.513Z,12.68
2022-11-21T07:01:05.971Z,11.32
2022-11-21T07:03:33.552Z,8.15
2022-11-21T07:06:01.211Z,10.77
2022-11-21T07:08:28.175Z,7.00
2022-11-21T07:11:23.017Z,11.60
2022-11-21T07:13:42.864Z,13.40
2022-11-21T07:16:12.472Z,10.57
2022-11-21T07:18:40.018Z,10.43
2022-11-21T07:21:07.310Z,10.27
2022-11-21T07:23:34.686Z,10.48
2022-11-21T07:26:01.754Z,10.25
2022-11-21T07:28:28.636Z,11.00
2022-11-21T07:30:55.909Z,12.13
2022-11-21T07:33:24.099Z,16.73
2022-11-21T07:35:50.676Z,7.72
2022-11-21T07:38:17.380Z,11.27
2022-11-21T07:40:44.046Z,10.95
2022-11-21T07:43:11.294Z,14.82
2022-11-21T07:45:38.528Z,10.63
2022-11-21T07:48:06.818Z,10.05
2022-11-21T07:50:34.880Z,12.15
2022-11-21T07:53:03.204Z,13.43
2022-11-21T07:55:30.051Z,8.45
2022-11-21T07:58:01.068Z,15.77
2022-11-21T08:00:29.242Z,9.57
2022-11-21T08:02:56.083Z,9.38
2022-11-21T08:05:22.775Z,13.57
2022-11-21T08:07:50.903Z,11.82
2022-11-21T08:10:17.900Z,8.90
2022-11-21T08:12:44.882Z,12.40
2022-11-21T08:15:12.057Z,17.70
2022-11-21T08:17:39.141Z,13.73
2022-11-21T08:20:07.223Z,11.60
2022-11-21T08:22:38.225Z,9.63
2022-11-21T08:25:08.041Z,11.98
2022-11-21T08:27:34.648Z,8.02
2022-11-21T08:30:01.253Z,11.82
2022-11-21T08:32:27.892Z,8.43
2022-11-21T08:34:54.437Z,8.88
2022-11-21T08:37:20.934Z,10.63
2022-11-21T08:39:47.507Z,13.90
2022-11-21T08:42:15.365Z,13.70
2022-11-21T08:44:41.937Z,9.30
2022-11-21T08:47:08.594Z,9.32
2022-11-21T08:49:35.202Z,9.60
2022-11-21T08:52:01.733Z,17.92
2022-11-21T08:54:28.722Z,8.15
2022-11-21T08:56:55.501Z,10.10
2022-11-21T08:59:23.713Z,9.75
2022-11-21T09:01:50.667Z,12.88
2022-11-21T09:04:17.243Z,9.35
2022-11-21T09:06:43.774Z,11.73
2022-11-21T09:09:10.546Z,11.23
2022-11-21T09:11:37.137Z,20.27
2022-11-21T09:14:04.200Z,13.23
2022-11-21T09:16:32.061Z,13.27
2022-11-21T09:18:58.632Z,10.93
2022-11-21T09:21:25.125Z,12.05
2022-11-21T09:23:51.695Z,10.02
2022-11-21T09:26:18.160Z,9.13
2022-11-21T09:28:44.684Z,8.98
2022-11-21T09:31:11.692Z,12.35
2022-11-21T09:33:39.604Z,10.05
2022-11-21T09:36:06.151Z,9.95
2022-11-21T09:38:32.768Z,6.30
2022-11-21T09:41:14.506Z,7.95
2022-11-21T09:43:55.838Z,9.40
2022-11-21T09:46:31.467Z,4.72
2022-11-21T09:49:05.008Z,5.18
2022-11-21T09:51:32.093Z,5.00
2022-11-21T09:54:01.543Z,6.28
2022-11-21T09:56:35.514Z,4.68
2022-11-21T09:59:11.642Z,4.53
2022-11-21T10:01:38.578Z,5.20
2022-11-21T10:04:06.624Z,6.95
2022-11-21T10:06:38.606Z,3.28
2022-11-21T10:09:14.626Z,5.28
2022-11-21T10:11:48.266Z,4.93
2022-11-21T10:14:26.534Z,2.83
2022-11-21T10:17:01.697Z,7.85
2022-11-21T10:19:44.619Z,9.60
2022-11-21T10:22:27.596Z,3.95
2022-11-21T10:24:56.325Z,4.07
2022-11-21T10:27:32.128Z,5.43
2022-11-21T10:30:02.861Z,6.05
2022-11-21T10:32:34.830Z,3.55
2022-11-21T10:35:14.095Z,3.33
2022-11-21T10:37:46.925Z,2.55
2022-11-21T10:40:24.147Z,3.13
2022-11-21T10:42:57.278Z,3.75
2022-11-21T10:45:24.667Z,4.60
2022-11-21T10:47:52.563Z,2.88
2022-11-21T10:50:38.118Z,2.58
2022-11-21T10:53:15.227Z,3.65
2022-11-21T10:55:59.445Z,5.13
2022-11-21T10:58:35.832Z,3.22
2022-11-21T11:01:02.825Z,1.92
2022-11-21T11:03:31.369Z,3.10
2022-11-21T11:05:59.310Z,2.50
2022-11-21T11:08:25.849Z,2.40
2022-11-21T11:11:04.809Z,2.35
2022-11-21T11:13:49.419Z,6.07
2022-11-21T11:16:18.623Z,3.55
2022-11-21T11:18:58.399Z,2.92
2022-11-21T11:21:28.685Z,1.88
2022-11-21T11:24:07.206Z,11.23
2022-11-21T11:26:34.044Z,2.40
2022-11-21T11:29:09.333Z,1.67
2022-11-21T11:31:43.282Z,2.97
2022-11-21T11:34:12.877Z,3.47
2022-11-21T11:36:55.194Z,2.40
2022-11-21T11:39:35.755Z,1.80
2022-11-21T11:42:27.061Z,2.63
2022-11-21T11:45:11.974Z,2.38
2022-11-21T11:47:54.253Z,3.00
2022-11-21T11:50:24.680Z,3.70
2022-11-21T11:53:04.177Z,4.18
2022-11-21T11:55:37.766Z,3.45
2022-11-21T11:58:22.078Z,1.55
2022-11-21T12:00:57.366Z,5.05
2022-11-21T12:03:31.619Z,2.25
2022-11-21T12:06:09.140Z,2.70
2022-11-21T12:08:43.788Z,3.85
2022-11-21T12:11:19.005Z,3.47
2022-11-21T12:13:49.281Z,2.95
2022-11-21T12:16:17.484Z,3.47
2022-11-21T12:18:51.162Z,2.88
2022-11-21T12:21:18.613Z,3.67
2022-11-21T12:23:49.437Z,3.03
2022-11-21T12:26:40.156Z,3.87
2022-11-21T12:29:17.117Z,5.90
2022-11-21T12:32:01.649Z,3.30
2022-11-21T12:34:47.764Z,3.47
2022-11-21T12:37:26.449Z,2.70
2022-11-21T12:40:09.602Z,4.45
2022-11-21T12:42:41.675Z,2.13
2022-11-21T12:45:32.699Z,2.67
2022-11-21T12:48:14.871Z,2.17
2022-11-21T12:50:52.573Z,4.40
2022-11-21T12:53:26.993Z,3.08
2022-11-21T12:56:02.112Z,2.20
2022-11-21T12:58:35.004Z,5.13
2022-11-21T13:01:21.131Z,6.20
2022-11-21T13:03:54.489Z,6.55
2022-11-21T13:06:24.473Z,2.80
2022-11-21T13:08:53.314Z,3.75
2022-11-21T13:11:36.818Z,2.58
2022-11-21T13:14:12.621Z,3.67
2022-11-21T13:16:42.638Z,3.78
2022-11-21T13:19:19.952Z,3.60
2022-11-21T13:21:48.492Z,2.28
2022-11-21T13:24:54.825Z,2.03
2022-11-21T13:27:38.909Z,2.40
2022-11-21T13:30:24.709Z,6.05
2022-11-21T13:32:52.764Z,7.22
2022-11-21T13:36:04.924Z,3.05
2022-11-21T13:38:32.441Z,6.43
2022-11-21T13:40:59.139Z,4.78
2022-11-21T13:43:35.347Z,3.40
2022-11-21T13:46:02.479Z,4.03
2022-11-21T13:48:52.724Z,5.47
2022-11-21T13:51:47.353Z,1.85
2022-11-21T13:55:03.935Z,4.78
2022-11-21T13:57:48.009Z,4.60
2022-11-21T14:00:28.373Z,4.10
2022-11-21T14:03:38.957Z,5.45
2022-11-21T14:06:28.215Z,4.10
2022-11-21T14:09:06.499Z,3.03
2022-11-21T14:11:40.315Z,4.35
2022-11-21T14:14:09.822Z,2.67
2022-11-21T14:16:44.701Z,4.85
2022-11-21T14:19:13.441Z,2.92
2022-11-21T14:21:40.153Z,5.18
2022-11-21T14:24:15.943Z,4.70
2022-11-21T14:26:47.157Z,4.15
2022-11-21T14:29:18.589Z,3.80
2022-11-21T14:31:47.996Z,6.32
2022-11-21T14:34:24.209Z,5.07
2022-11-21T14:36:50.951Z,4.90
2022-11-21T14:39:36.548Z,6.40
2022-11-21T14:42:06.940Z,5.97
2022-11-21T14:44:33.477Z,3.75
2022-11-21T14:47:12.776Z,3.85
2022-11-21T14:49:39.400Z,5.07
2022-11-21T14:52:17.792Z,5.30
2022-11-21T14:55:22.274Z,5.00
2022-11-21T15:00:07.433Z,7.65
2022-11-21T15:02:35.749Z,4.80
2022-11-21T15:05:05.181Z,4.80
2022-11-21T15:07:39.045Z,4.82
2022-11-21T15:12:59.220Z,2.08
2022-11-21T15:15:30.520Z,5.93
2022-11-21T15:18:26.504Z,6.07
2022-11-21T15:20:49.470Z,9.52
2022-11-21T15:23:25.981Z,8.65
2022-11-21T15:25:56.612Z,6.15
2022-11-21T15:28:26.870Z,4.43
2022-11-21T15:31:15.809Z,5.82
2022-11-21T15:37:01.774Z,4.43
2022-11-21T15:39:28.573Z,4.05
2022-11-21T15:41:55.096Z,7.40
2022-11-21T15:44:22.896Z,6.00
2022-11-21T15:46:52.723Z,9.70
2022-11-21T15:49:36.140Z,5.32
2022-11-21T15:52:10.223Z,5.65
2022-11-21T15:54:37.130Z,4.70
2022-11-21T15:57:03.829Z,7.82
2022-11-21T15:59:31.041Z,7.05
2022-11-21T16:01:57.948Z,6.13
2022-11-21T16:04:26.467Z,5.25
2022-11-21T16:06:53.272Z,6.05
2022-11-21T16:09:19.934Z,6.50
2022-11-21T16:11:47.250Z,9.15
2022-11-21T16:14:15.868Z,10.57
2022-11-21T16:16:44.236Z,8.30
2022-11-21T16:19:12.028Z,5.90
2022-11-21T16:21:40.465Z,5.97
2022-11-21T16:24:07.348Z,7.00
2022-11-21T16:26:34.050Z,5.10
2022-11-21T16:29:01.473Z,5.00
2022-11-21T16:31:29.885Z,7.10
2022-11-21T16:33:57.105Z,7.30
2022-11-21T16:36:25.331Z,8.57
2022-11-21T16:38:53.591Z,5.78
2022-11-21T16:41:22.158Z,5.53
2022-11-21T16:43:50.551Z,6.25
2022-11-21T16:46:17.948Z,11.90
2022-11-21T16:48:44.875Z,5.30
2022-11-21T16:51:12.898Z,5.03
2022-11-21T16:53:40.159Z,7.30
2022-11-21T16:56:08.636Z,5.22
2022-11-21T16:58:36.297Z,8.15
2022-11-21T17:01:07.945Z,9.95
2022-11-21T17:03:34.732Z,5.80
2022-11-21T17:06:01.252Z,7.95
2022-11-21T17:08:28.293Z,4.78
2022-11-21T17:10:54.823Z,8.15
2022-11-21T17:13:22.895Z,6.35
2022-11-21T17:15:49.378Z,7.05
2022-11-21T17:18:15.955Z,5.20
2022-11-21T17:20:42.769Z,7.68
2022-11-21T17:23:09.532Z,6.78
2022-11-21T17:25:36.054Z,6.57
2022-11-21T17:28:02.744Z,7.03
2022-11-21T17:30:30.620Z,7.10
2022-11-21T17:32:57.167Z,7.00
2022-11-21T17:35:23.673Z,5.25
2022-11-21T17:37:50.391Z,6.32
2022-11-21T17:40:16.916Z,5.93
2022-11-21T17:42:43.523Z,7.90
2022-11-21T17:45:10.704Z,7.65
2022-11-21T17:47:38.628Z,8.07
2022-11-21T17:50:06.533Z,4.55
2022-11-21T17:52:33.236Z,7.78
2022-11-21T17:54:59.741Z,9.45
2022-11-21T17:57:26.377Z,6.70
2022-11-21T17:59:53.106Z,3.60
2022-11-21T18:02:19.719Z,7.85
2022-11-21T18:04:47.934Z,7.47
2022-11-21T18:07:14.494Z,7.13
2022-11-21T18:09:41.024Z,9.38
2022-11-21T18:12:07.705Z,7.32
2022-11-21T18:14:34.211Z,8.32
2022-11-21T18:17:00.762Z,10.38
2022-11-21T18:19:27.265Z,6.03
2022-11-21T18:21:55.181Z,6.97
2022-11-21T18:24:21.730Z,9.30
2022-11-21T18:26:48.276Z,9.18
2022-11-21T18:32:01.375Z,6.35
2022-11-21T18:34:27.897Z,9.82
2022-11-21T18:36:55.952Z,14.15
2022-11-21T18:39:22.502Z,6.40
2022-11-21T18:41:49.125Z,9.98
2022-11-21T18:44:21.409Z,11.00
2022-11-21T18:46:48.433Z,6.05
2022-11-21T18:49:14.965Z,11.52
2022-11-21T18:51:41.656Z,4.47
2022-11-21T18:54:10.195Z,8.02
2022-11-21T18:56:39.472Z,7.53
2022-11-21T18:59:06.563Z,7.25
2022-11-21T19:01:35.218Z,7.28
2022-11-21T19:04:02.165Z,9.25
2022-11-21T19:06:29.313Z,6.63
2022-11-21T19:08:57.466Z,9.10
2022-11-21T19:11:27.336Z,6.60
2022-11-21T19:13:55.599Z,9.68
2022-11-21T19:16:24.008Z,6.68
2022-11-21T19:19:11.732Z,8.85
2022-11-21T19:21:37.724Z,8.85
2022-11-21T19:24:05.017Z,7.95
2022-11-21T19:26:33.147Z,8.15
2022-11-21T19:28:59.634Z,7.60
2022-11-21T19:31:26.262Z,10.20
2022-11-21T19:33:52.742Z,11.45
2022-11-21T19:36:21.034Z,9.80
2022-11-21T19:38:50.887Z,5.60
2022-11-21T19:41:19.795Z,7.05
2022-11-21T19:43:49.327Z,9.25
2022-11-21T19:46:17.716Z,9.00
2022-11-21T19:48:46.935Z,8.65
2022-11-21T19:51:14.058Z,6.50
2022-11-21T19:53:40.528Z,6.93
2022-11-21T19:56:08.412Z,6.32
2022-11-21T19:58:34.956Z,15.90
2022-11-21T20:01:06.898Z,9.00
2022-11-21T20:03:33.656Z,11.13
2022-11-21T20:06:02.069Z,8.05
2022-11-21T20:08:28.621Z,9.70
2022-11-21T20:10:55.119Z,7.88
2022-11-21T20:13:24.490Z,11.15
2022-11-21T20:15:50.957Z,6.55
2022-11-21T20:18:18.852Z,10.18
2022-11-21T20:20:45.526Z,6.88
2022-11-21T20:23:12.046Z,10.93
2022-11-21T20:25:38.537Z,8.43
2022-11-21T20:28:10.219Z,14.98
2022-11-21T20:30:38.182Z,10.27
2022-11-21T20:33:09.908Z,8.02
2022-11-21T20:35:39.223Z,7.57
2022-11-21T20:38:05.751Z,7.10
2022-11-21T20:40:32.348Z,6.78
2022-11-21T20:42:58.966Z,8.88
2022-11-21T20:46:07.262Z,7.93
2022-11-21T20:48:17.225Z,13.13
2022-11-21T20:51:51.014Z,8.45
2022-11-21T20:53:52.013Z,9.20
2022-11-21T20:56:20.028Z,7.60
2022-11-21T20:58:47.147Z,7.70
2022-11-21T21:01:16.082Z,10.90
2022-11-21T21:03:42.861Z,9.05
2022-11-21T21:06:13.121Z,7.93
2022-11-21T21:08:40.167Z,10.20
2022-11-21T21:11:20.774Z,9.45
2022-11-21T21:13:54.691Z,9.65
2022-11-21T21:16:23.697Z,8.25
2022-11-21T21:18:52.482Z,5.28
2022-11-21T21:21:22.811Z,7.18
2022-11-21T21:23:55.911Z,11.30
2022-11-21T21:26:25.994Z,7.03
2022-11-21T21:28:53.053Z,8.23
2022-11-21T21:31:21.805Z,7.75
2022-11-21T21:33:49.001Z,10.25
2022-11-21T21:36:17.323Z,7.70
2022-11-21T21:38:49.296Z,8.50
2022-11-21T21:43:42.545Z,11.20
2022-11-21T21:46:10.467Z,9.25
2022-11-21T21:48:37.230Z,5.97
2022-11-21T21:51:04.952Z,8.75
2022-11-21T21:53:34.669Z,10.77
2022-11-21T21:56:03.392Z,6.13
2022-11-21T21:58:33.100Z,10.93
2022-11-21T22:01:04.270Z,9.32
2022-11-21T22:03:31.010Z,7.50
2022-11-21T22:06:00.970Z,11.52
2022-11-21T22:08:30.172Z,5.97
2022-11-21T22:11:02.901Z,7.60
2022-11-21T22:13:29.553Z,4.80
2022-11-21T22:15:56.531Z,5.18
2022-11-21T22:18:23.111Z,9.30
2022-11-21T22:20:49.659Z,6.70
2022-11-21T22:23:16.259Z,8.07
2022-11-21T22:25:42.855Z,7.43
2022-11-21T22:28:10.874Z,5.28
2022-11-21T22:30:37.470Z,8.18
2022-11-21T22:33:04.170Z,7.05
2022-11-21T22:35:31.662Z,10.02
2022-11-21T22:37:58.402Z,8.55
2022-11-21T22:40:24.998Z,6.05
2022-11-21T22:42:51.937Z,6.72
2022-11-21T22:45:19.782Z,7.03
2022-11-21T22:47:48.103Z,5.20
2022-11-21T22:50:15.426Z,8.10
2022-11-21T22:52:42.075Z,6.20
2022-11-21T22:55:09.202Z,5.28
2022-11-21T22:57:35.800Z,5.03
2022-11-21T23:00:02.346Z,6.03
2022-11-21T23:02:32.912Z,6.45
2022-11-21T23:04:59.411Z,8.93
2022-11-21T23:07:27.916Z,7.95
2022-11-21T23:09:54.504Z,6.93
2022-11-21T23:12:21.045Z,7.75
2022-11-21T23:14:47.571Z,7.30
2022-11-21T23:17:15.602Z,5.70
2022-11-21T23:19:43.473Z,6.40
2022-11-21T23:22:10.007Z,6.65
2022-11-21T23:24:36.507Z,8.23
2022-11-21T23:27:03.048Z,4.90
2022-11-21T23:29:29.719Z,8.40
2022-11-21T23:31:56.387Z,9.43
2022-11-21T23:34:22.979Z,4.85
2022-11-21T23:36:50.824Z,5.70
2022-11-21T23:39:17.309Z,7.63
2022-11-21T23:41:43.834Z,4.60
2022-11-21T23:44:10.340Z,5.63
2022-11-21T23:46:36.851Z,7.18
2022-11-21T23:49:03.367Z,7.40
2022-11-21T23:51:29.857Z,6.18
2022-11-21T23:53:57.749Z,6.45
2022-11-21T23:56:24.299Z,4.72
2022-11-21T23:58:50.802Z,4.32
